sensor_id;sensor_type;location;lat;lon;timestamp;pressure;altitude;pressure_sealevel;temperature;humidity
74637;BME280;63141;54.616;39.754;2022-10-14T00:00:18;100900.56;;;25.98;36.13
74637;BME280;63141;54.616;39.754;2022-10-14T00:03:19;100900.56;;;25.98;36.26
74637;BME280;63141;54.616;39.754;2022-10-14T00:06:26;100907.63;;;25.99;36.32
74637;BME280;63141;54.616;39.754;2022-10-14T00:09:28;100904.94;;;25.99;36.38
74637;BME280;63141;54.616;39.754;2022-10-14T00:12:29;100906.81;;;25.97;36.53
74637;BME280;63141;54.616;39.754;2022-10-14T00:15:31;100909.50;;;25.97;36.27
74637;BME280;63141;54.616;39.754;2022-10-14T00:18:32;100905.09;;;25.96;36.52
74637;BME280;63141;54.616;39.754;2022-10-14T00:21:35;100905.00;;;25.97;36.46
74637;BME280;63141;54.616;39.754;2022-10-14T00:24:37;100909.50;;;25.97;36.57
74637;BME280;63141;54.616;39.754;2022-10-14T00:27:38;100904.16;;;25.97;36.14
74637;BME280;63141;54.616;39.754;2022-10-14T00:30:55;100905.00;;;25.97;36.51
74637;BME280;63141;54.616;39.754;2022-10-14T00:33:56;100907.75;;;25.96;36.43
74637;BME280;63141;54.616;39.754;2022-10-14T00:36:58;100905.00;;;25.97;36.33
74637;BME280;63141;54.616;39.754;2022-10-14T00:39:59;100902.44;;;25.96;36.16
74637;BME280;63141;54.616;39.754;2022-10-14T00:43:03;100891.75;;;25.96;36.43
74637;BME280;63141;54.616;39.754;2022-10-14T00:46:04;100896.19;;;25.95;36.61
74637;BME280;63141;54.616;39.754;2022-10-14T00:49:12;100899.75;;;25.96;36.16
74637;BME280;63141;54.616;39.754;2022-10-14T00:52:17;100907.75;;;25.96;36.41
74637;BME280;63141;54.616;39.754;2022-10-14T00:55:19;100899.81;;;25.94;36.28
74637;BME280;63141;54.616;39.754;2022-10-14T00:58:20;100906.00;;;25.95;36.23
74637;BME280;63141;54.616;39.754;2022-10-14T01:01:22;100905.16;;;25.94;36.60
74637;BME280;63141;54.616;39.754;2022-10-14T01:04:24;100900.69;;;25.95;36.26
74637;BME280;63141;54.616;39.754;2022-10-14T01:10:50;100906.88;;;25.95;36.23
74637;BME280;63141;54.616;39.754;2022-10-14T01:14:08;100899.75;;;25.96;36.06
74637;BME280;63141;54.616;39.754;2022-10-14T01:27:23;100906.97;;;25.94;36.08
74637;BME280;63141;54.616;39.754;2022-10-14T01:30:33;100904.28;;;25.94;36.45
74637;BME280;63141;54.616;39.754;2022-10-14T01:33:40;100906.00;;;25.95;36.15
74637;BME280;63141;54.616;39.754;2022-10-14T01:36:49;100901.63;;;25.94;36.26
74637;BME280;63141;54.616;39.754;2022-10-14T01:39:57;100904.28;;;25.94;36.48
74637;BME280;63141;54.616;39.754;2022-10-14T01:43:03;100902.53;;;25.92;36.47
74637;BME280;63141;54.616;39.754;2022-10-14T01:46:07;100903.44;;;25.93;35.97
74637;BME280;63141;54.616;39.754;2022-10-14T01:49:21;100902.44;;;25.96;36.35
74637;BME280;63141;54.616;39.754;2022-10-14T01:52:27;100909.63;;;25.94;36.36
74637;BME280;63141;54.616;39.754;2022-10-14T01:55:38;100907.75;;;25.96;36.33
74637;BME280;63141;54.616;39.754;2022-10-14T01:58:41;100903.34;;;25.95;36.08
74637;BME280;63141;54.616;39.754;2022-10-14T02:01:43;100908.69;;;25.95;36.58
74637;BME280;63141;54.616;39.754;2022-10-14T02:04:46;100908.69;;;25.95;36.34
74637;BME280;63141;54.616;39.754;2022-10-14T02:07:52;100911.34;;;25.95;36.52
74637;BME280;63141;54.616;39.754;2022-10-14T02:11:05;100906.00;;;25.95;36.58
74637;BME280;63141;54.616;39.754;2022-10-14T02:17:24;100908.69;;;25.95;36.46
74637;BME280;63141;54.616;39.754;2022-10-14T02:20:36;100912.22;;;25.95;36.47
74637;BME280;63141;54.616;39.754;2022-10-14T02:27:06;100909.63;;;25.94;36.58
74637;BME280;63141;54.616;39.754;2022-10-14T02:30:10;100904.19;;;25.95;36.69
74637;BME280;63141;54.616;39.754;2022-10-14T02:33:12;100916.69;;;25.95;36.62
74637;BME280;63141;54.616;39.754;2022-10-14T02:36:17;100913.09;;;25.96;36.74
74637;BME280;63141;54.616;39.754;2022-10-14T02:39:25;100915.78;;;25.96;36.35
74637;BME280;63141;54.616;39.754;2022-10-14T02:42:27;100913.09;;;25.96;36.48
74637;BME280;63141;54.616;39.754;2022-10-14T02:45:30;100904.16;;;25.97;36.33
74637;BME280;63141;54.616;39.754;2022-10-14T02:48:31;100906.81;;;25.97;36.47
74637;BME280;63141;54.616;39.754;2022-10-14T02:51:32;100910.44;;;25.96;36.53
74637;BME280;63141;54.616;39.754;2022-10-14T02:54:34;100901.53;;;25.95;36.35
74637;BME280;63141;54.616;39.754;2022-10-14T02:57:36;100913.09;;;25.96;36.48
74637;BME280;63141;54.616;39.754;2022-10-14T03:00:38;100902.44;;;25.96;36.67
74637;BME280;63141;54.616;39.754;2022-10-14T03:03:39;100912.16;;;25.97;36.33
74637;BME280;63141;54.616;39.754;2022-10-14T03:06:41;100907.75;;;25.96;36.62
74637;BME280;63141;54.616;39.754;2022-10-14T03:09:42;100909.50;;;25.97;36.72
74637;BME280;63141;54.616;39.754;2022-10-14T03:12:44;100908.63;;;25.96;36.54
74637;BME280;63141;54.616;39.754;2022-10-14T03:15:55;100910.44;;;25.96;36.42
74637;BME280;63141;54.616;39.754;2022-10-14T03:18:56;100911.28;;;25.96;36.26
74637;BME280;63141;54.616;39.754;2022-10-14T03:22:12;100917.50;;;25.97;36.36
74637;BME280;63141;54.616;39.754;2022-10-14T03:25:14;100913.00;;;25.97;36.74
74637;BME280;63141;54.616;39.754;2022-10-14T03:28:36;100913.09;;;25.96;36.58
74637;BME280;63141;54.616;39.754;2022-10-14T03:31:46;100908.63;;;25.96;36.35
74637;BME280;63141;54.616;39.754;2022-10-14T03:35:01;100913.09;;;25.96;36.68
74637;BME280;63141;54.616;39.754;2022-10-14T03:38:03;100912.22;;;25.95;36.50
74637;BME280;63141;54.616;39.754;2022-10-14T03:41:08;100915.69;;;25.97;36.49
74637;BME280;63141;54.616;39.754;2022-10-14T03:44:10;100906.81;;;25.97;36.52
74637;BME280;63141;54.616;39.754;2022-10-14T03:47:15;100905.97;;;25.96;36.28
74637;BME280;63141;54.616;39.754;2022-10-14T03:50:18;100907.75;;;25.96;36.35
74637;BME280;63141;54.616;39.754;2022-10-14T03:53:24;100908.63;;;25.96;36.08
74637;BME280;63141;54.616;39.754;2022-10-14T03:56:26;100914.03;;;25.95;36.05
74637;BME280;63141;54.616;39.754;2022-10-14T03:59:28;100909.63;;;25.94;35.56
74637;BME280;63141;54.616;39.754;2022-10-14T04:02:30;100907.06;;;25.90;35.53
74637;BME280;63141;54.616;39.754;2022-10-14T04:05:32;100919.56;;;25.90;35.51
74637;BME280;63141;54.616;39.754;2022-10-14T04:08:41;100915.22;;;25.87;34.56
74637;BME280;63141;54.616;39.754;2022-10-14T04:11:55;100911.72;;;25.85;34.45
74637;BME280;63141;54.616;39.754;2022-10-14T04:15:25;100910.84;;;25.85;34.30
74637;BME280;63141;54.616;39.754;2022-10-14T04:18:48;100908.19;;;25.85;34.38
74637;BME280;63141;54.616;39.754;2022-10-14T04:21:54;100910.00;;;25.84;34.30
74637;BME280;63141;54.616;39.754;2022-10-14T04:24:58;100913.47;;;25.86;34.17
74637;BME280;63141;54.616;39.754;2022-10-14T04:28:00;100909.91;;;25.86;33.81
74637;BME280;63141;54.616;39.754;2022-10-14T04:31:12;100912.56;;;25.87;34.05
74637;BME280;63141;54.616;39.754;2022-10-14T04:34:27;100909.03;;;25.87;33.98
74637;BME280;63141;54.616;39.754;2022-10-14T04:37:28;100917.91;;;25.87;33.99
74637;BME280;63141;54.616;39.754;2022-10-14T04:40:50;100920.56;;;25.87;34.04
74637;BME280;63141;54.616;39.754;2022-10-14T04:43:52;100916.97;;;25.88;34.24
74637;BME280;63141;54.616;39.754;2022-10-14T04:47:08;100921.38;;;25.89;33.90
74637;BME280;63141;54.616;39.754;2022-10-14T04:50:09;100919.56;;;25.90;34.04
74637;BME280;63141;54.616;39.754;2022-10-14T04:53:12;100920.41;;;25.90;34.24
74637;BME280;63141;54.616;39.754;2022-10-14T04:56:20;100919.56;;;25.90;34.29
74637;BME280;63141;54.616;39.754;2022-10-14T04:59:32;100917.75;;;25.90;34.40
74637;BME280;63141;54.616;39.754;2022-10-14T05:02:43;100923.09;;;25.90;34.40
74637;BME280;63141;54.616;39.754;2022-10-14T05:05:44;100920.41;;;25.90;34.10
74637;BME280;63141;54.616;39.754;2022-10-14T05:08:46;100920.41;;;25.90;34.28
74637;BME280;63141;54.616;39.754;2022-10-14T05:11:48;100919.50;;;25.91;34.49
74637;BME280;63141;54.616;39.754;2022-10-14T05:14:54;100926.66;;;25.91;34.63
74637;BME280;63141;54.616;39.754;2022-10-14T05:18:02;100922.16;;;25.91;34.54
74637;BME280;63141;54.616;39.754;2022-10-14T05:21:24;100928.38;;;25.92;34.30
74637;BME280;63141;54.616;39.754;2022-10-14T05:24:34;100923.19;;;25.89;33.51
74637;BME280;63141;54.616;39.754;2022-10-14T05:27:37;100934.88;;;25.85;32.00
74637;BME280;63141;54.616;39.754;2022-10-14T05:30:40;100927.03;;;25.82;32.26
74637;BME280;63141;54.616;39.754;2022-10-14T05:33:44;100928.78;;;25.81;31.63
74637;BME280;63141;54.616;39.754;2022-10-14T05:36:46;100927.88;;;25.82;31.38
74637;BME280;63141;54.616;39.754;2022-10-14T05:39:47;100935.88;;;25.82;31.38
74637;BME280;63141;54.616;39.754;2022-10-14T05:42:52;100935.22;;;25.77;30.87
74637;BME280;63141;54.616;39.754;2022-10-14T05:45:55;100940.00;;;25.69;29.93
74637;BME280;63141;54.616;39.754;2022-10-14T05:48:59;100936.06;;;25.57;29.17
74637;BME280;63141;54.616;39.754;2022-10-14T05:52:03;100938.34;;;25.44;28.91
74637;BME280;63141;54.616;39.754;2022-10-14T05:55:07;100940.53;;;25.35;28.97
74637;BME280;63141;54.616;39.754;2022-10-14T05:58:09;100945.25;;;25.28;28.63
74637;BME280;63141;54.616;39.754;2022-10-14T06:01:14;100938.50;;;25.19;28.23
74637;BME280;63141;54.616;39.754;2022-10-14T06:04:18;100941.31;;;25.15;27.92
74637;BME280;63141;54.616;39.754;2022-10-14T06:07:20;100944.25;;;25.08;28.14
74637;BME280;63141;54.616;39.754;2022-10-14T06:10:22;100952.34;;;25.05;28.26
74637;BME280;63141;54.616;39.754;2022-10-14T06:13:24;100948.13;;;25.00;27.65
74637;BME280;63141;54.616;39.754;2022-10-14T06:16:26;100958.97;;;24.95;27.72
74637;BME280;63141;54.616;39.754;2022-10-14T06:19:29;100961.72;;;24.92;27.58
74637;BME280;63141;54.616;39.754;2022-10-14T06:22:31;100959.06;;;24.92;27.58
74637;BME280;63141;54.616;39.754;2022-10-14T06:25:32;100964.47;;;24.91;27.36
74637;BME280;63141;54.616;39.754;2022-10-14T06:28:35;100959.16;;;24.91;27.43
74637;BME280;63141;54.616;39.754;2022-10-14T06:31:36;100961.88;;;24.89;27.21
74637;BME280;63141;54.616;39.754;2022-10-14T06:34:38;100965.47;;;24.88;27.32
74637;BME280;63141;54.616;39.754;2022-10-14T06:37:39;100968.13;;;24.88;27.49
74637;BME280;63141;54.616;39.754;2022-10-14T06:40:40;100969.03;;;24.87;27.64
74637;BME280;63141;54.616;39.754;2022-10-14T06:43:42;100971.72;;;24.87;28.46
74637;BME280;63141;54.616;39.754;2022-10-14T06:46:43;100974.50;;;24.84;28.33
74637;BME280;63141;54.616;39.754;2022-10-14T06:49:44;100968.41;;;24.80;28.46
74637;BME280;63141;54.616;39.754;2022-10-14T06:52:46;100966.72;;;24.78;28.55
74637;BME280;63141;54.616;39.754;2022-10-14T06:55:48;100974.72;;;24.78;29.09
74637;BME280;63141;54.616;39.754;2022-10-14T06:58:53;100977.34;;;24.79;29.24
74637;BME280;63141;54.616;39.754;2022-10-14T07:01:55;100972.88;;;24.80;29.75
74637;BME280;63141;54.616;39.754;2022-10-14T07:04:56;100978.19;;;24.80;29.98
74637;BME280;63141;54.616;39.754;2022-10-14T07:07:58;100971.97;;;24.81;29.80
74637;BME280;63141;54.616;39.754;2022-10-14T07:10:59;100977.16;;;24.84;30.36
74637;BME280;63141;54.616;39.754;2022-10-14T07:14:01;100970.16;;;24.81;30.59
74637;BME280;63141;54.616;39.754;2022-10-14T07:17:02;100968.50;;;24.79;30.53
74637;BME280;63141;54.616;39.754;2022-10-14T07:20:04;100975.66;;;24.77;31.00
74637;BME280;63141;54.616;39.754;2022-10-14T07:23:05;100973.91;;;24.76;30.86
74637;BME280;63141;54.616;39.754;2022-10-14T07:26:07;100971.31;;;24.74;30.28
74637;BME280;63141;54.616;39.754;2022-10-14T07:29:08;100985.50;;;24.75;30.55
74637;BME280;63141;54.616;39.754;2022-10-14T07:32:09;100980.34;;;24.70;30.74
74637;BME280;63141;54.616;39.754;2022-10-14T07:35:11;100987.34;;;24.73;30.89
74637;BME280;63141;54.616;39.754;2022-10-14T07:38:13;100984.75;;;24.71;31.24
74637;BME280;63141;54.616;39.754;2022-10-14T07:41:18;100990.06;;;24.71;31.16
74637;BME280;63141;54.616;39.754;2022-10-14T07:44:20;100984.81;;;24.70;30.99
74637;BME280;63141;54.616;39.754;2022-10-14T07:47:22;100987.56;;;24.66;30.65
74637;BME280;63141;54.616;39.754;2022-10-14T07:50:23;100988.50;;;24.65;30.10
74637;BME280;63141;54.616;39.754;2022-10-14T07:53:26;100978.78;;;24.64;29.58
74637;BME280;63141;54.616;39.754;2022-10-14T07:56:28;100987.69;;;24.63;29.46
74637;BME280;63141;54.616;39.754;2022-10-14T07:59:29;100977.09;;;24.62;28.94
74637;BME280;63141;54.616;39.754;2022-10-14T08:02:30;100980.75;;;24.59;28.97
74637;BME280;63141;54.616;39.754;2022-10-14T08:05:31;100977.25;;;24.57;28.69
74637;BME280;63141;54.616;39.754;2022-10-14T08:08:33;100973.78;;;24.55;28.21
74637;BME280;63141;54.616;39.754;2022-10-14T08:11:34;100981.91;;;24.52;27.86
74637;BME280;63141;54.616;39.754;2022-10-14T08:14:37;100973.91;;;24.52;27.64
74637;BME280;63141;54.616;39.754;2022-10-14T08:17:39;100980.97;;;24.53;27.57
74637;BME280;63141;54.616;39.754;2022-10-14T08:20:40;100984.56;;;24.52;27.66
74637;BME280;63141;54.616;39.754;2022-10-14T08:23:42;100975.63;;;24.53;27.17
74637;BME280;63141;54.616;39.754;2022-10-14T08:26:54;100978.25;;;24.55;26.82
74637;BME280;63141;54.616;39.754;2022-10-14T08:29:56;100976.56;;;24.52;26.98
74637;BME280;63141;54.616;39.754;2022-10-14T08:32:58;100974.78;;;24.53;26.73
74637;BME280;63141;54.616;39.754;2022-10-14T08:36:00;100974.78;;;24.53;26.63
74637;BME280;63141;54.616;39.754;2022-10-14T08:39:01;100981.84;;;24.54;26.75
74637;BME280;63141;54.616;39.754;2022-10-14T08:45:41;100971.50;;;24.44;26.18
74637;BME280;63141;54.616;39.754;2022-10-14T08:48:45;100976.94;;;24.41;26.12
74637;BME280;63141;54.616;39.754;2022-10-14T08:51:57;100972.50;;;24.42;26.18
74637;BME280;63141;54.616;39.754;2022-10-14T08:58:41;100970.63;;;24.44;25.33
74637;BME280;63141;54.616;39.754;2022-10-14T09:01:57;100963.56;;;24.43;25.43
74637;BME280;63141;54.616;39.754;2022-10-14T09:05:00;100967.16;;;24.42;25.34
74637;BME280;63141;54.616;39.754;2022-10-14T09:08:04;100960.91;;;24.43;25.40
74637;BME280;63141;54.616;39.754;2022-10-14T09:11:11;100961.72;;;24.45;25.20
74637;BME280;63141;54.616;39.754;2022-10-14T09:14:17;100969.63;;;24.48;25.49
74637;BME280;63141;54.616;39.754;2022-10-14T09:17:26;100958.91;;;24.50;24.93
74637;BME280;63141;54.616;39.754;2022-10-14T09:20:30;100956.31;;;24.48;24.77
74637;BME280;63141;54.616;39.754;2022-10-14T09:23:31;100959.81;;;24.49;24.93
74637;BME280;63141;54.616;39.754;2022-10-14T09:26:41;100955.41;;;24.49;24.90
74637;BME280;63141;54.616;39.754;2022-10-14T09:29:59;100955.31;;;24.51;25.18
74637;BME280;63141;54.616;39.754;2022-10-14T09:33:01;100958.91;;;24.50;24.82
74637;BME280;63141;54.616;39.754;2022-10-14T09:36:04;100948.28;;;24.50;25.17
74637;BME280;63141;54.616;39.754;2022-10-14T09:39:10;100956.31;;;24.48;24.64
74637;BME280;63141;54.616;39.754;2022-10-14T09:42:21;100954.44;;;24.50;24.65
74637;BME280;63141;54.616;39.754;2022-10-14T09:45:25;100950.97;;;24.48;24.22
74637;BME280;63141;54.616;39.754;2022-10-14T09:51:32;100955.31;;;24.51;24.65
74637;BME280;63141;54.616;39.754;2022-10-14T09:54:34;100949.09;;;24.52;24.63
74637;BME280;63141;54.616;39.754;2022-10-14T09:57:35;100948.16;;;24.53;24.95
74637;BME280;63141;54.616;39.754;2022-10-14T10:00:37;100938.34;;;24.53;25.07
74637;BME280;63141;54.616;39.754;2022-10-14T10:03:38;100943.69;;;24.53;24.96
74637;BME280;63141;54.616;39.754;2022-10-14T10:06:51;100946.41;;;24.52;24.50
74637;BME280;63141;54.616;39.754;2022-10-14T10:09:58;100947.28;;;24.52;24.71
74637;BME280;63141;54.616;39.754;2022-10-14T10:13:00;100940.22;;;24.51;24.70
74637;BME280;63141;54.616;39.754;2022-10-14T10:16:04;100951.78;;;24.50;24.20
74637;BME280;63141;54.616;39.754;2022-10-14T10:19:32;100955.31;;;24.51;24.30
74637;BME280;63141;54.616;39.754;2022-10-14T10:22:34;100954.50;;;24.49;24.49
74637;BME280;63141;54.616;39.754;2022-10-14T10:25:38;100952.78;;;24.48;24.02
74637;BME280;63141;54.616;39.754;2022-10-14T10:28:44;100956.22;;;24.51;24.46
74637;BME280;63141;54.616;39.754;2022-10-14T10:35:48;100957.88;;;24.54;23.77
74637;BME280;63141;54.616;39.754;2022-10-14T10:39:16;100966.75;;;24.54;23.96
74637;BME280;63141;54.616;39.754;2022-10-14T10:42:40;100966.75;;;24.54;23.88
74637;BME280;63141;54.616;39.754;2022-10-14T10:49:26;100966.03;;;24.49;23.71
74637;BME280;63141;54.616;39.754;2022-10-14T10:56:06;100965.28;;;24.44;23.06
74637;BME280;63141;54.616;39.754;2022-10-14T11:02:49;100951.97;;;24.44;22.84
74637;BME280;63141;54.616;39.754;2022-10-14T11:09:02;100952.06;;;24.42;22.57
74637;BME280;63141;54.616;39.754;2022-10-14T11:15:46;100949.44;;;24.41;22.32
74637;BME280;63141;54.616;39.754;2022-10-14T11:22:35;100942.38;;;24.40;22.42
74637;BME280;63141;54.616;39.754;2022-10-14T11:25:58;100940.63;;;24.39;22.75
74637;BME280;63141;54.616;39.754;2022-10-14T11:35:52;100935.44;;;24.36;22.54
74637;BME280;63141;54.616;39.754;2022-10-14T11:42:18;100937.09;;;24.38;22.62
74637;BME280;63141;54.616;39.754;2022-10-14T11:45:59;100937.06;;;24.40;22.47
74637;BME280;63141;54.616;39.754;2022-10-14T11:49:32;100941.44;;;24.41;22.60
74637;BME280;63141;54.616;39.754;2022-10-14T11:52:45;100930.94;;;24.38;22.63
74637;BME280;63141;54.616;39.754;2022-10-14T11:56:01;100931.84;;;24.37;22.48
74637;BME280;63141;54.616;39.754;2022-10-14T12:09:32;100917.78;;;24.33;22.03
74637;BME280;63141;54.616;39.754;2022-10-14T12:12:40;100926.63;;;24.34;22.15
74637;BME280;63141;54.616;39.754;2022-10-14T12:15:49;100924.84;;;24.34;22.16
74637;BME280;63141;54.616;39.754;2022-10-14T12:18:55;100920.50;;;24.32;21.94
74637;BME280;63141;54.616;39.754;2022-10-14T12:22:14;100919.59;;;24.33;21.78
74637;BME280;63141;54.616;39.754;2022-10-14T12:25:19;100923.16;;;24.32;22.15
74637;BME280;63141;54.616;39.754;2022-10-14T12:28:23;100920.50;;;24.32;22.04
74637;BME280;63141;54.616;39.754;2022-10-14T12:31:35;100903.63;;;24.33;21.74
74637;BME280;63141;54.616;39.754;2022-10-14T12:34:43;100915.16;;;24.32;21.93
74637;BME280;63141;54.616;39.754;2022-10-14T12:37:49;100903.69;;;24.30;21.93
74637;BME280;63141;54.616;39.754;2022-10-14T12:40:50;100901.97;;;24.29;21.96
74637;BME280;63141;54.616;39.754;2022-10-14T12:44:02;100907.31;;;24.29;21.98
74637;BME280;63141;54.616;39.754;2022-10-14T12:47:16;100911.78;;;24.28;21.79
74637;BME280;63141;54.616;39.754;2022-10-14T12:50:33;100919.75;;;24.28;21.79
74637;BME280;63141;54.616;39.754;2022-10-14T12:53:37;100919.81;;;24.27;21.91
74637;BME280;63141;54.616;39.754;2022-10-14T12:57:01;100923.28;;;24.29;21.79
74637;BME280;63141;54.616;39.754;2022-10-14T13:03:29;100920.66;;;24.27;21.71
74637;BME280;63141;54.616;39.754;2022-10-14T13:06:39;100924.25;;;24.26;21.60
74637;BME280;63141;54.616;39.754;2022-10-14T13:09:45;100919.84;;;24.25;21.74
74637;BME280;63141;54.616;39.754;2022-10-14T13:12:47;100918.16;;;24.22;21.89
74637;BME280;63141;54.616;39.754;2022-10-14T13:15:50;100915.50;;;24.22;21.33
74637;BME280;63141;54.616;39.754;2022-10-14T13:18:58;100917.25;;;24.23;21.35
74637;BME280;63141;54.616;39.754;2022-10-14T13:22:02;100922.63;;;24.22;21.48
74637;BME280;63141;54.616;39.754;2022-10-14T13:25:15;100919.94;;;24.23;21.54
74637;BME280;63141;54.616;39.754;2022-10-14T13:28:25;100914.69;;;24.20;21.70
74637;BME280;63141;54.616;39.754;2022-10-14T13:35:17;100914.69;;;24.20;21.69
74637;BME280;63141;54.616;39.754;2022-10-14T13:38:22;100911.22;;;24.18;21.43
74637;BME280;63141;54.616;39.754;2022-10-14T13:41:24;100905.88;;;24.18;21.57
74637;BME280;63141;54.616;39.754;2022-10-14T13:44:31;100911.22;;;24.18;21.43
74637;BME280;63141;54.616;39.754;2022-10-14T13:47:35;100906.00;;;24.15;21.83
74637;BME280;63141;54.616;39.754;2022-10-14T13:50:37;100909.56;;;24.14;21.53
74637;BME280;63141;54.616;39.754;2022-10-14T14:00:33;100910.41;;;24.16;21.18
74637;BME280;63141;54.616;39.754;2022-10-14T14:03:41;100908.66;;;24.15;21.55
74637;BME280;63141;54.616;39.754;2022-10-14T14:06:48;100908.72;;;24.14;21.51
74637;BME280;63141;54.616;39.754;2022-10-14T14:09:59;100905.19;;;24.13;21.59
74637;BME280;63141;54.616;39.754;2022-10-14T14:13:03;100902.53;;;24.13;21.71
74637;BME280;63141;54.616;39.754;2022-10-14T14:16:05;100899.91;;;24.12;21.50
74637;BME280;63141;54.616;39.754;2022-10-14T14:19:41;100900.81;;;24.12;21.53
74637;BME280;63141;54.616;39.754;2022-10-14T14:22:42;100899.06;;;24.11;21.63
74637;BME280;63141;54.616;39.754;2022-10-14T14:25:48;100909.69;;;24.11;21.78
74637;BME280;63141;54.616;39.754;2022-10-14T14:28:50;100906.13;;;24.12;21.67
74637;BME280;63141;54.616;39.754;2022-10-14T14:31:51;100905.25;;;24.12;21.25
74637;BME280;63141;54.616;39.754;2022-10-14T14:34:53;100901.75;;;24.10;21.84
74637;BME280;63141;54.616;39.754;2022-10-14T14:37:55;100904.38;;;24.11;21.46
74637;BME280;63141;54.616;39.754;2022-10-14T14:41:01;100893.72;;;24.11;21.60
74637;BME280;63141;54.616;39.754;2022-10-14T14:44:03;100898.16;;;24.12;22.40
74637;BME280;63141;54.616;39.754;2022-10-14T14:47:08;100891.34;;;24.29;23.60
74637;BME280;63141;54.616;39.754;2022-10-14T14:50:16;100887.28;;;24.42;23.94
74637;BME280;63141;54.616;39.754;2022-10-14T14:53:20;100886.84;;;24.54;24.81
74637;BME280;63141;54.616;39.754;2022-10-14T14:56:41;100889.28;;;24.60;24.85
74637;BME280;63141;54.616;39.754;2022-10-14T15:00:05;100889.09;;;24.65;24.78
74637;BME280;63141;54.616;39.754;2022-10-14T15:03:07;100885.38;;;24.69;25.29
74637;BME280;63141;54.616;39.754;2022-10-14T15:06:14;100884.28;;;24.75;25.47
74637;BME280;63141;54.616;39.754;2022-10-14T15:12:51;100883.78;;;24.87;26.59
74637;BME280;63141;54.616;39.754;2022-10-14T15:15:58;100886.41;;;24.88;26.33
74637;BME280;63141;54.616;39.754;2022-10-14T15:19:35;100887.13;;;24.92;26.88
74637;BME280;63141;54.616;39.754;2022-10-14T15:22:40;100887.03;;;24.95;27.17
74637;BME280;63141;54.616;39.754;2022-10-14T15:25:55;100889.56;;;24.98;27.68
74637;BME280;63141;54.616;39.754;2022-10-14T15:29:14;100882.19;;;25.05;28.41
74637;BME280;63141;54.616;39.754;2022-10-14T15:32:24;100883.59;;;25.14;28.82
74637;BME280;63141;54.616;39.754;2022-10-14T15:35:26;100887.88;;;25.18;29.04
74637;BME280;63141;54.616;39.754;2022-10-14T15:38:28;100882.41;;;25.22;28.99
74637;BME280;63141;54.616;39.754;2022-10-14T15:41:30;100879.53;;;25.27;29.17
74637;BME280;63141;54.616;39.754;2022-10-14T15:44:31;100881.13;;;25.31;29.38
74637;BME280;63141;54.616;39.754;2022-10-14T15:47:33;100884.50;;;25.36;30.00
74637;BME280;63141;54.616;39.754;2022-10-14T15:50:35;100884.34;;;25.39;30.13
74637;BME280;63141;54.616;39.754;2022-10-14T15:53:39;100886.03;;;25.42;30.83
74637;BME280;63141;54.616;39.754;2022-10-14T15:56:40;100882.34;;;25.44;30.84
74637;BME280;63141;54.616;39.754;2022-10-14T15:59:42;100877.97;;;25.43;30.58
74637;BME280;63141;54.616;39.754;2022-10-14T16:02:44;100880.56;;;25.45;30.70
74637;BME280;63141;54.616;39.754;2022-10-14T16:05:46;100877.09;;;25.43;30.65
74637;BME280;63141;54.616;39.754;2022-10-14T16:08:48;100892.22;;;25.42;30.89
74637;BME280;63141;54.616;39.754;2022-10-14T16:11:49;100885.16;;;25.41;31.18
74637;BME280;63141;54.616;39.754;2022-10-14T16:14:57;100886.06;;;25.40;31.02
74637;BME280;63141;54.616;39.754;2022-10-14T16:17:59;100888.72;;;25.40;31.02
74637;BME280;63141;54.616;39.754;2022-10-14T16:21:00;100892.22;;;25.42;31.43
74637;BME280;63141;54.616;39.754;2022-10-14T16:24:03;100895.69;;;25.44;31.64
74637;BME280;63141;54.616;39.754;2022-10-14T16:27:05;100890.25;;;25.47;31.40
74637;BME280;63141;54.616;39.754;2022-10-14T16:30:07;100900.78;;;25.50;31.92
74637;BME280;63141;54.616;39.754;2022-10-14T16:33:11;100893.72;;;25.49;31.41
74637;BME280;63141;54.616;39.754;2022-10-14T16:36:13;100897.16;;;25.52;31.72
74637;BME280;63141;54.616;39.754;2022-10-14T16:39:16;100889.84;;;25.57;32.40
74637;BME280;63141;54.616;39.754;2022-10-14T16:42:17;100901.31;;;25.59;32.35
74637;BME280;63141;54.616;39.754;2022-10-14T16:45:18;100895.91;;;25.60;32.93
74637;BME280;63141;54.616;39.754;2022-10-14T16:48:20;100898.38;;;25.65;33.32
74637;BME280;63141;54.616;39.754;2022-10-14T16:51:24;100901.69;;;25.70;33.91
74637;BME280;63141;54.616;39.754;2022-10-14T16:54:25;100901.59;;;25.73;33.67
74637;BME280;63141;54.616;39.754;2022-10-14T16:57:27;100905.19;;;25.72;33.21
74637;BME280;63141;54.616;39.754;2022-10-14T17:00:28;100900.78;;;25.71;33.08
74637;BME280;63141;54.616;39.754;2022-10-14T17:03:29;100896.50;;;25.67;32.85
74637;BME280;63141;54.616;39.754;2022-10-14T17:06:32;100902.03;;;25.62;32.34
74637;BME280;63141;54.616;39.754;2022-10-14T17:09:34;100910.19;;;25.59;31.82
74637;BME280;63141;54.616;39.754;2022-10-14T17:12:36;100903.19;;;25.57;31.47
74637;BME280;63141;54.616;39.754;2022-10-14T17:15:38;100903.25;;;25.55;31.59
74637;BME280;63141;54.616;39.754;2022-10-14T17:18:39;100908.63;;;25.54;31.04
74637;BME280;63141;54.616;39.754;2022-10-14T17:21:40;100912.25;;;25.53;30.84
74637;BME280;63141;54.616;39.754;2022-10-14T17:24:44;100905.09;;;25.53;31.13
74637;BME280;63141;54.616;39.754;2022-10-14T17:27:46;100912.09;;;25.56;30.69
74637;BME280;63141;54.616;39.754;2022-10-14T17:30:47;100914.66;;;25.59;30.71